<?xml version="1.0" encoding="UTF-8" standalone="no" ?>
<gpx xmlns="http://www.topografix.com/GPX/1/1" xmlns:xsi="http://www.w3.org/2001/XMLSchema-instance" xsi:schemaLocation="http://www.topografix.com/GPX/1/1 http://www.topografix.com/GPX/1/1/gpx.xsd" version="1.1" creator="VisuGPX - https://www.visugpx.com">
  <metadata>
    <name>6 jours en Margeride</name>
    <desc><![CDATA[6 jours en Margeride]]></desc>
  </metadata>
  <trk>
    <name><![CDATA[J 5 Le Sauvage - Les Salles]]></name>
    <trkseg>
      <trkpt lat="44.82445" lon="3.48647">
        <ele>1295</ele>
        <time>2013-05-20T08:22:52Z</time>
      </trkpt>
      <trkpt lat="44.82446" lon="3.48649">
        <ele>1292</ele>
        <time>2013-05-20T08:22:53Z</time>
      </trkpt>
      <trkpt lat="44.82416" lon="3.48701">
        <ele>1304</ele>
        <time>2013-05-20T08:34:51Z</time>
      </trkpt>
      <trkpt lat="44.82445" lon="3.48747">
        <ele>1304</ele>
        <time>2013-05-20T08:37:21Z</time>
      </trkpt>
      <trkpt lat="44.82457" lon="3.48806">
        <ele>1304</ele>
        <time>2013-05-20T08:38:58Z</time>
      </trkpt>
      <trkpt lat="44.82457" lon="3.48921">
        <ele>1303</ele>
        <time>2013-05-20T08:40:18Z</time>
      </trkpt>
      <trkpt lat="44.82458" lon="3.48926">
        <ele>1302</ele>
        <time>2013-05-20T08:40:19Z</time>
      </trkpt>
      <trkpt lat="44.82499" lon="3.49027">
        <ele>1302</ele>
        <time>2013-05-20T08:41:08Z</time>
      </trkpt>
      <trkpt lat="44.8254" lon="3.49054">
        <ele>1304</ele>
        <time>2013-05-20T08:41:33Z</time>
      </trkpt>
      <trkpt lat="44.82541" lon="3.49055">
        <ele>1304</ele>
        <time>2013-05-20T08:41:34Z</time>
      </trkpt>
      <trkpt lat="44.82583" lon="3.49078">
        <ele>1307</ele>
        <time>2013-05-20T08:45:44Z</time>
      </trkpt>
      <trkpt lat="44.82664" lon="3.49113">
        <ele>1310</ele>
        <time>2013-05-20T08:46:38Z</time>
      </trkpt>
      <trkpt lat="44.82707" lon="3.49126">
        <ele>1312</ele>
        <time>2013-05-20T08:47:05Z</time>
      </trkpt>
      <trkpt lat="44.82708" lon="3.49126">
        <ele>1312</ele>
        <time>2013-05-20T08:47:06Z</time>
      </trkpt>
      <trkpt lat="44.82785" lon="3.49068">
        <ele>1306</ele>
        <time>2013-05-20T08:48:05Z</time>
      </trkpt>
      <trkpt lat="44.82828" lon="3.49083">
        <ele>1301</ele>
        <time>2013-05-20T08:48:33Z</time>
      </trkpt>
      <trkpt lat="44.82829" lon="3.49083">
        <ele>1301</ele>
        <time>2013-05-20T08:48:34Z</time>
      </trkpt>
      <trkpt lat="44.82913" lon="3.49117">
        <ele>1302</ele>
        <time>2013-05-20T08:49:28Z</time>
      </trkpt>
      <trkpt lat="44.82954" lon="3.4914">
        <ele>1305</ele>
        <time>2013-05-20T08:49:58Z</time>
      </trkpt>
      <trkpt lat="44.82955" lon="3.49141">
        <ele>1305</ele>
        <time>2013-05-20T08:49:59Z</time>
      </trkpt>
      <trkpt lat="44.83011" lon="3.49231">
        <ele>1314</ele>
        <time>2013-05-20T08:50:51Z</time>
      </trkpt>
      <trkpt lat="44.83032" lon="3.49284">
        <ele>1317</ele>
        <time>2013-05-20T08:51:05Z</time>
      </trkpt>
      <trkpt lat="44.83033" lon="3.49287">
        <ele>1317</ele>
        <time>2013-05-20T08:51:06Z</time>
      </trkpt>
      <trkpt lat="44.83056" lon="3.49339">
        <ele>1321</ele>
        <time>2013-05-20T08:53:27Z</time>
      </trkpt>
      <trkpt lat="44.8308" lon="3.49452">
        <ele>1326</ele>
        <time>2013-05-20T08:54:28Z</time>
      </trkpt>
      <trkpt lat="44.8308" lon="3.49455">
        <ele>1326</ele>
        <time>2013-05-20T08:54:29Z</time>
      </trkpt>
      <trkpt lat="44.83042" lon="3.49561">
        <ele>1329</ele>
        <time>2013-05-20T08:55:23Z</time>
      </trkpt>
      <trkpt lat="44.83009" lon="3.49599">
        <ele>1332</ele>
        <time>2013-05-20T08:57:21Z</time>
      </trkpt>
      <trkpt lat="44.83007" lon="3.49601">
        <ele>1333</ele>
        <time>2013-05-20T08:57:22Z</time>
      </trkpt>
      <trkpt lat="44.82987" lon="3.49715">
        <ele>1337</ele>
        <time>2013-05-20T08:58:41Z</time>
      </trkpt>
      <trkpt lat="44.82987" lon="3.4972">
        <ele>1337</ele>
        <time>2013-05-20T08:58:42Z</time>
      </trkpt>
      <trkpt lat="44.82962" lon="3.4983">
        <ele>1354</ele>
        <time>2013-05-20T08:59:38Z</time>
      </trkpt>
      <trkpt lat="44.82936" lon="3.4988">
        <ele>1365</ele>
        <time>2013-05-20T09:00:09Z</time>
      </trkpt>
      <trkpt lat="44.82934" lon="3.49883">
        <ele>1366</ele>
        <time>2013-05-20T09:00:10Z</time>
      </trkpt>
      <trkpt lat="44.82862" lon="3.49948">
        <ele>1374</ele>
        <time>2013-05-20T09:01:14Z</time>
      </trkpt>
      <trkpt lat="44.82859" lon="3.49951">
        <ele>1374</ele>
        <time>2013-05-20T09:01:15Z</time>
      </trkpt>
      <trkpt lat="44.82793" lon="3.50023">
        <ele>1382</ele>
        <time>2013-05-20T09:02:10Z</time>
      </trkpt>
      <trkpt lat="44.82761" lon="3.50062">
        <ele>1386</ele>
        <time>2013-05-20T09:02:40Z</time>
      </trkpt>
      <trkpt lat="44.82759" lon="3.50065">
        <ele>1387</ele>
        <time>2013-05-20T09:02:41Z</time>
      </trkpt>
      <trkpt lat="44.82697" lon="3.50148">
        <ele>1393</ele>
        <time>2013-05-20T09:03:46Z</time>
      </trkpt>
      <trkpt lat="44.82694" lon="3.50152">
        <ele>1394</ele>
        <time>2013-05-20T09:03:47Z</time>
      </trkpt>
      <trkpt lat="44.82635" lon="3.50232">
        <ele>1396</ele>
        <time>2013-05-20T09:04:34Z</time>
      </trkpt>
      <trkpt lat="44.82604" lon="3.50276">
        <ele>1394</ele>
        <time>2013-05-20T09:05:11Z</time>
      </trkpt>
      <trkpt lat="44.82602" lon="3.50279">
        <ele>1394</ele>
        <time>2013-05-20T09:05:12Z</time>
      </trkpt>
      <trkpt lat="44.82545" lon="3.5036">
        <ele>1394</ele>
        <time>2013-05-20T09:06:06Z</time>
      </trkpt>
      <trkpt lat="44.82512" lon="3.50399">
        <ele>1394</ele>
        <time>2013-05-20T09:06:19Z</time>
      </trkpt>
      <trkpt lat="44.82509" lon="3.50402">
        <ele>1394</ele>
        <time>2013-05-20T09:06:20Z</time>
      </trkpt>
      <trkpt lat="44.82446" lon="3.50475">
        <ele>1396</ele>
        <time>2013-05-20T09:07:25Z</time>
      </trkpt>
      <trkpt lat="44.82443" lon="3.50479">
        <ele>1396</ele>
        <time>2013-05-20T09:07:26Z</time>
      </trkpt>
      <trkpt lat="44.82413" lon="3.50584">
        <ele>1385</ele>
        <time>2013-05-20T09:08:30Z</time>
      </trkpt>
      <trkpt lat="44.82414" lon="3.50589">
        <ele>1384</ele>
        <time>2013-05-20T09:08:31Z</time>
      </trkpt>
      <trkpt lat="44.82422" lon="3.50706">
        <ele>1381</ele>
        <time>2013-05-20T09:13:03Z</time>
      </trkpt>
      <trkpt lat="44.82423" lon="3.50711">
        <ele>1381</ele>
        <time>2013-05-20T09:13:04Z</time>
      </trkpt>
      <trkpt lat="44.8242" lon="3.50827">
        <ele>1380</ele>
        <time>2013-05-20T09:13:54Z</time>
      </trkpt>
      <trkpt lat="44.824" lon="3.5088">
        <ele>1380</ele>
        <time>2013-05-20T09:14:16Z</time>
      </trkpt>
      <trkpt lat="44.82398" lon="3.50886">
        <ele>1380</ele>
        <time>2013-05-20T09:14:17Z</time>
      </trkpt>
      <trkpt lat="44.82358" lon="3.50982">
        <ele>1379</ele>
        <time>2013-05-20T09:14:37Z</time>
      </trkpt>
      <trkpt lat="44.82369" lon="3.51039">
        <ele>1371</ele>
        <time>2013-05-20T09:14:53Z</time>
      </trkpt>
      <trkpt lat="44.82384" lon="3.51096">
        <ele>1370</ele>
        <time>2013-05-20T09:15:24Z</time>
      </trkpt>
      <trkpt lat="44.82386" lon="3.511">
        <ele>1370</ele>
        <time>2013-05-20T09:15:25Z</time>
      </trkpt>
      <trkpt lat="44.82441" lon="3.51187">
        <ele>1366</ele>
        <time>2013-05-20T09:15:40Z</time>
      </trkpt>
      <trkpt lat="44.82463" lon="3.51239">
        <ele>1357</ele>
        <time>2013-05-20T09:15:49Z</time>
      </trkpt>
      <trkpt lat="44.82475" lon="3.51297">
        <ele>1360</ele>
        <time>2013-05-20T09:16:32Z</time>
      </trkpt>
      <trkpt lat="44.82475" lon="3.51301">
        <ele>1360</ele>
        <time>2013-05-20T09:16:33Z</time>
      </trkpt>
      <trkpt lat="44.82474" lon="3.51423">
        <ele>1363</ele>
        <time>2013-05-20T09:17:35Z</time>
      </trkpt>
      <trkpt lat="44.82473" lon="3.51428">
        <ele>1363</ele>
        <time>2013-05-20T09:17:36Z</time>
      </trkpt>
      <trkpt lat="44.82458" lon="3.51539">
        <ele>1365</ele>
        <time>2013-05-20T09:18:18Z</time>
      </trkpt>
      <trkpt lat="44.8244" lon="3.51597">
        <ele>1367</ele>
        <time>2013-05-20T09:18:54Z</time>
      </trkpt>
      <trkpt lat="44.82437" lon="3.51601">
        <ele>1367</ele>
        <time>2013-05-20T09:18:55Z</time>
      </trkpt>
      <trkpt lat="44.82388" lon="3.51692">
        <ele>1370</ele>
        <time>2013-05-20T09:19:45Z</time>
      </trkpt>
      <trkpt lat="44.82356" lon="3.51736">
        <ele>1368</ele>
        <time>2013-05-20T09:20:03Z</time>
      </trkpt>
      <trkpt lat="44.82354" lon="3.51738">
        <ele>1368</ele>
        <time>2013-05-20T09:20:04Z</time>
      </trkpt>
      <trkpt lat="44.82284" lon="3.51799">
        <ele>1362</ele>
        <time>2013-05-20T09:21:15Z</time>
      </trkpt>
      <trkpt lat="44.82281" lon="3.51802">
        <ele>1361</ele>
        <time>2013-05-20T09:21:16Z</time>
      </trkpt>
      <trkpt lat="44.82201" lon="3.51844">
        <ele>1355</ele>
        <time>2013-05-20T09:22:06Z</time>
      </trkpt>
      <trkpt lat="44.82159" lon="3.51864">
        <ele>1351</ele>
        <time>2013-05-20T09:22:45Z</time>
      </trkpt>
      <trkpt lat="44.82155" lon="3.51866">
        <ele>1350</ele>
        <time>2013-05-20T09:22:46Z</time>
      </trkpt>
      <trkpt lat="44.82084" lon="3.51922">
        <ele>1344</ele>
        <time>2013-05-20T09:23:42Z</time>
      </trkpt>
      <trkpt lat="44.8205" lon="3.5196">
        <ele>1340</ele>
        <time>2013-05-20T09:24:10Z</time>
      </trkpt>
      <trkpt lat="44.82047" lon="3.51963">
        <ele>1340</ele>
        <time>2013-05-20T09:24:11Z</time>
      </trkpt>
      <trkpt lat="44.81998" lon="3.52029">
        <ele>1346</ele>
        <time>2013-05-20T09:26:45Z</time>
      </trkpt>
      <trkpt lat="44.81976" lon="3.52096">
        <ele>1332</ele>
        <time>2013-05-20T09:27:39Z</time>
      </trkpt>
      <trkpt lat="44.81967" lon="3.52156">
        <ele>1322</ele>
        <time>2013-05-20T09:28:02Z</time>
      </trkpt>
      <trkpt lat="44.81966" lon="3.52161">
        <ele>1322</ele>
        <time>2013-05-20T09:28:03Z</time>
      </trkpt>
      <trkpt lat="44.81979" lon="3.52278">
        <ele>1313</ele>
        <time>2013-05-20T09:28:39Z</time>
      </trkpt>
      <trkpt lat="44.82006" lon="3.52329">
        <ele>1312</ele>
        <time>2013-05-20T09:29:34Z</time>
      </trkpt>
      <trkpt lat="44.82007" lon="3.52332">
        <ele>1312</ele>
        <time>2013-05-20T09:29:35Z</time>
      </trkpt>
      <trkpt lat="44.82088" lon="3.52347">
        <ele>1298</ele>
        <time>2013-05-20T09:30:29Z</time>
      </trkpt>
      <trkpt lat="44.82122" lon="3.52385">
        <ele>1301</ele>
        <time>2013-05-20T09:30:56Z</time>
      </trkpt>
      <trkpt lat="44.82123" lon="3.52386">
        <ele>1301</ele>
        <time>2013-05-20T09:30:57Z</time>
      </trkpt>
      <trkpt lat="44.82118" lon="3.52505">
        <ele>1297</ele>
        <time>2013-05-20T09:32:10Z</time>
      </trkpt>
      <trkpt lat="44.82117" lon="3.52509">
        <ele>1297</ele>
        <time>2013-05-20T09:32:11Z</time>
      </trkpt>
      <trkpt lat="44.82095" lon="3.52625">
        <ele>1288</ele>
        <time>2013-05-20T09:33:15Z</time>
      </trkpt>
      <trkpt lat="44.82094" lon="3.5263">
        <ele>1288</ele>
        <time>2013-05-20T09:33:16Z</time>
      </trkpt>
      <trkpt lat="44.82059" lon="3.52737">
        <ele>1280</ele>
        <time>2013-05-20T09:33:52Z</time>
      </trkpt>
      <trkpt lat="44.8202" lon="3.52763">
        <ele>1276</ele>
        <time>2013-05-20T09:34:18Z</time>
      </trkpt>
      <trkpt lat="44.82018" lon="3.52763">
        <ele>1276</ele>
        <time>2013-05-20T09:34:19Z</time>
      </trkpt>
      <trkpt lat="44.81945" lon="3.52814">
        <ele>1268</ele>
        <time>2013-05-20T09:34:54Z</time>
      </trkpt>
      <trkpt lat="44.81907" lon="3.52848">
        <ele>1264</ele>
        <time>2013-05-20T09:35:22Z</time>
      </trkpt>
      <trkpt lat="44.81906" lon="3.52848">
        <ele>1264</ele>
        <time>2013-05-20T09:35:23Z</time>
      </trkpt>
      <trkpt lat="44.8182" lon="3.52857">
        <ele>1255</ele>
        <time>2013-05-20T09:37:01Z</time>
      </trkpt>
      <trkpt lat="44.81818" lon="3.52856">
        <ele>1255</ele>
        <time>2013-05-20T09:37:02Z</time>
      </trkpt>
      <trkpt lat="44.81744" lon="3.5282">
        <ele>1247</ele>
        <time>2013-05-20T09:38:00Z</time>
      </trkpt>
      <trkpt lat="44.81709" lon="3.5286">
        <ele>1241</ele>
        <time>2013-05-20T09:38:25Z</time>
      </trkpt>
      <trkpt lat="44.81709" lon="3.52862">
        <ele>1241</ele>
        <time>2013-05-20T09:38:26Z</time>
      </trkpt>
      <trkpt lat="44.81687" lon="3.52931">
        <ele>1237</ele>
        <time>2013-05-20T09:39:35Z</time>
      </trkpt>
      <trkpt lat="44.81669" lon="3.52976">
        <ele>1234</ele>
        <time>2013-05-20T09:39:36Z</time>
      </trkpt>
      <trkpt lat="44.81664" lon="3.53048">
        <ele>1229</ele>
        <time>2013-05-20T09:40:45Z</time>
      </trkpt>
      <trkpt lat="44.81666" lon="3.53049">
        <ele>1228</ele>
        <time>2013-05-20T09:40:46Z</time>
      </trkpt>
      <trkpt lat="44.81694" lon="3.53096">
        <ele>1222</ele>
        <time>2013-05-20T09:42:13Z</time>
      </trkpt>
      <trkpt lat="44.81714" lon="3.5315">
        <ele>1220</ele>
        <time>2013-05-20T09:43:22Z</time>
      </trkpt>
      <trkpt lat="44.81736" lon="3.53264">
        <ele>1220</ele>
        <time>2013-05-20T09:44:33Z</time>
      </trkpt>
      <trkpt lat="44.81736" lon="3.53269">
        <ele>1220</ele>
        <time>2013-05-20T09:44:34Z</time>
      </trkpt>
      <trkpt lat="44.817" lon="3.53376">
        <ele>1219</ele>
        <time>2013-05-20T09:46:06Z</time>
      </trkpt>
      <trkpt lat="44.81699" lon="3.53378">
        <ele>1219</ele>
        <time>2013-05-20T09:46:07Z</time>
      </trkpt>
      <trkpt lat="44.81704" lon="3.53441">
        <ele>1213</ele>
        <time>2013-05-20T09:47:37Z</time>
      </trkpt>
      <trkpt lat="44.81677" lon="3.53552">
        <ele>1199</ele>
        <time>2013-05-20T09:48:30Z</time>
      </trkpt>
      <trkpt lat="44.81652" lon="3.53604">
        <ele>1196</ele>
        <time>2013-05-20T09:48:55Z</time>
      </trkpt>
      <trkpt lat="44.81651" lon="3.53605">
        <ele>1195</ele>
        <time>2013-05-20T09:48:56Z</time>
      </trkpt>
      <trkpt lat="44.81589" lon="3.53675">
        <ele>1195</ele>
        <time>2013-05-20T09:50:57Z</time>
      </trkpt>
      <trkpt lat="44.81586" lon="3.53675">
        <ele>1196</ele>
        <time>2013-05-20T09:50:58Z</time>
      </trkpt>
      <trkpt lat="44.81514" lon="3.53732">
        <ele>1196</ele>
        <time>2013-05-20T09:51:52Z</time>
      </trkpt>
      <trkpt lat="44.81481" lon="3.53774">
        <ele>1194</ele>
        <time>2013-05-20T09:52:26Z</time>
      </trkpt>
      <trkpt lat="44.8148" lon="3.53776">
        <ele>1194</ele>
        <time>2013-05-20T09:52:27Z</time>
      </trkpt>
      <trkpt lat="44.81439" lon="3.53876">
        <ele>1193</ele>
        <time>2013-05-20T09:53:23Z</time>
      </trkpt>
      <trkpt lat="44.81433" lon="3.53939">
        <ele>1196</ele>
        <time>2013-05-20T09:53:43Z</time>
      </trkpt>
      <trkpt lat="44.81433" lon="3.53941">
        <ele>1196</ele>
        <time>2013-05-20T09:53:44Z</time>
      </trkpt>
      <trkpt lat="44.81388" lon="3.54037">
        <ele>1195</ele>
        <time>2013-05-20T09:54:50Z</time>
      </trkpt>
      <trkpt lat="44.81385" lon="3.54041">
        <ele>1195</ele>
        <time>2013-05-20T09:54:51Z</time>
      </trkpt>
      <trkpt lat="44.81336" lon="3.54133">
        <ele>1200</ele>
        <time>2013-05-20T09:55:51Z</time>
      </trkpt>
      <trkpt lat="44.81309" lon="3.54181">
        <ele>1200</ele>
        <time>2013-05-20T09:56:23Z</time>
      </trkpt>
      <trkpt lat="44.81307" lon="3.54186">
        <ele>1200</ele>
        <time>2013-05-20T09:56:24Z</time>
      </trkpt>
      <trkpt lat="44.81256" lon="3.54273">
        <ele>1206</ele>
        <time>2013-05-20T09:57:09Z</time>
      </trkpt>
      <trkpt lat="44.81226" lon="3.54315">
        <ele>1213</ele>
        <time>2013-05-20T09:57:36Z</time>
      </trkpt>
      <trkpt lat="44.81223" lon="3.54318">
        <ele>1213</ele>
        <time>2013-05-20T09:57:37Z</time>
      </trkpt>
      <trkpt lat="44.81149" lon="3.5437">
        <ele>1217</ele>
        <time>2013-05-20T09:58:12Z</time>
      </trkpt>
      <trkpt lat="44.8111" lon="3.54393">
        <ele>1218</ele>
        <time>2013-05-20T09:58:20Z</time>
      </trkpt>
      <trkpt lat="44.81071" lon="3.54416">
        <ele>1217</ele>
        <time>2013-05-20T09:58:28Z</time>
      </trkpt>
      <trkpt lat="44.81041" lon="3.54453">
        <ele>1215</ele>
        <time>2013-05-20T09:58:34Z</time>
      </trkpt>
      <trkpt lat="44.81013" lon="3.545">
        <ele>1213</ele>
        <time>2013-05-20T09:58:39Z</time>
      </trkpt>
      <trkpt lat="44.81007" lon="3.54508">
        <ele>1213</ele>
        <time>2013-05-20T09:58:40Z</time>
      </trkpt>
      <trkpt lat="44.80949" lon="3.54581">
        <ele>1220</ele>
        <time>2013-05-20T09:59:05Z</time>
      </trkpt>
      <trkpt lat="44.80918" lon="3.54622">
        <ele>1224</ele>
        <time>2013-05-20T09:59:52Z</time>
      </trkpt>
      <trkpt lat="44.80915" lon="3.54625">
        <ele>1224</ele>
        <time>2013-05-20T09:59:53Z</time>
      </trkpt>
      <trkpt lat="44.8085" lon="3.54701">
        <ele>1227</ele>
        <time>2013-05-20T10:00:36Z</time>
      </trkpt>
      <trkpt lat="44.80816" lon="3.54742">
        <ele>1224</ele>
        <time>2013-05-20T10:01:02Z</time>
      </trkpt>
      <trkpt lat="44.80815" lon="3.54743">
        <ele>1224</ele>
        <time>2013-05-20T10:01:03Z</time>
      </trkpt>
      <trkpt lat="44.8075" lon="3.54825">
        <ele>1223</ele>
        <time>2013-05-20T10:02:01Z</time>
      </trkpt>
      <trkpt lat="44.80709" lon="3.54848">
        <ele>1218</ele>
        <time>2013-05-20T10:02:28Z</time>
      </trkpt>
      <trkpt lat="44.80707" lon="3.54849">
        <ele>1218</ele>
        <time>2013-05-20T10:02:29Z</time>
      </trkpt>
      <trkpt lat="44.80628" lon="3.54902">
        <ele>1216</ele>
        <time>2013-05-20T10:03:26Z</time>
      </trkpt>
      <trkpt lat="44.80591" lon="3.54937">
        <ele>1217</ele>
        <time>2013-05-20T10:03:54Z</time>
      </trkpt>
      <trkpt lat="44.8059" lon="3.54938">
        <ele>1217</ele>
        <time>2013-05-20T10:03:55Z</time>
      </trkpt>
      <trkpt lat="44.80514" lon="3.54998">
        <ele>1208</ele>
        <time>2013-05-20T10:04:52Z</time>
      </trkpt>
      <trkpt lat="44.80477" lon="3.55032">
        <ele>1202</ele>
        <time>2013-05-20T10:05:21Z</time>
      </trkpt>
      <trkpt lat="44.80477" lon="3.55034">
        <ele>1202</ele>
        <time>2013-05-20T10:05:22Z</time>
      </trkpt>
      <trkpt lat="44.80408" lon="3.55107">
        <ele>1191</ele>
        <time>2013-05-20T10:06:16Z</time>
      </trkpt>
      <trkpt lat="44.80367" lon="3.5513">
        <ele>1184</ele>
        <time>2013-05-20T10:06:44Z</time>
      </trkpt>
      <trkpt lat="44.80366" lon="3.55132">
        <ele>1184</ele>
        <time>2013-05-20T10:06:45Z</time>
      </trkpt>
      <trkpt lat="44.8029" lon="3.55188">
        <ele>1180</ele>
        <time>2013-05-20T10:07:39Z</time>
      </trkpt>
      <trkpt lat="44.80255" lon="3.55227">
        <ele>1180</ele>
        <time>2013-05-20T10:08:08Z</time>
      </trkpt>
      <trkpt lat="44.80254" lon="3.55229">
        <ele>1180</ele>
        <time>2013-05-20T10:08:09Z</time>
      </trkpt>
      <trkpt lat="44.80185" lon="3.553">
        <ele>1183</ele>
        <time>2013-05-20T10:09:02Z</time>
      </trkpt>
      <trkpt lat="44.80141" lon="3.55304">
        <ele>1179</ele>
        <time>2013-05-20T10:09:27Z</time>
      </trkpt>
      <trkpt lat="44.80138" lon="3.55305">
        <ele>1180</ele>
        <time>2013-05-20T10:09:28Z</time>
      </trkpt>
      <trkpt lat="44.80058" lon="3.5534">
        <ele>1186</ele>
        <time>2013-05-20T10:10:16Z</time>
      </trkpt>
      <trkpt lat="44.80039" lon="3.55367">
        <ele>1187</ele>
        <time>2013-05-20T10:10:58Z</time>
      </trkpt>
      <trkpt lat="44.80015" lon="3.55397">
        <ele>1184</ele>
        <time>2013-05-20T10:10:59Z</time>
      </trkpt>
      <trkpt lat="44.79972" lon="3.55449">
        <ele>1186</ele>
        <time>2013-05-20T10:11:33Z</time>
      </trkpt>
      <trkpt lat="44.79942" lon="3.55495">
        <ele>1188</ele>
        <time>2013-05-20T10:12:06Z</time>
      </trkpt>
      <trkpt lat="44.79939" lon="3.555">
        <ele>1188</ele>
        <time>2013-05-20T10:12:07Z</time>
      </trkpt>
      <trkpt lat="44.79876" lon="3.55578">
        <ele>1188</ele>
        <time>2013-05-20T10:13:03Z</time>
      </trkpt>
      <trkpt lat="44.79863" lon="3.55636">
        <ele>1188</ele>
        <time>2013-05-20T10:14:16Z</time>
      </trkpt>
      <trkpt lat="44.79862" lon="3.55639">
        <ele>1188</ele>
        <time>2013-05-20T10:14:17Z</time>
      </trkpt>
      <trkpt lat="44.7981" lon="3.55735">
        <ele>1183</ele>
        <time>2013-05-20T10:15:08Z</time>
      </trkpt>
      <trkpt lat="44.79799" lon="3.55796">
        <ele>1184</ele>
        <time>2013-05-20T10:16:07Z</time>
      </trkpt>
      <trkpt lat="44.798" lon="3.55799">
        <ele>1184</ele>
        <time>2013-05-20T10:16:08Z</time>
      </trkpt>
      <trkpt lat="44.79796" lon="3.55919">
        <ele>1190</ele>
        <time>2013-05-20T10:17:42Z</time>
      </trkpt>
      <trkpt lat="44.79795" lon="3.55924">
        <ele>1191</ele>
        <time>2013-05-20T10:17:43Z</time>
      </trkpt>
      <trkpt lat="44.79752" lon="3.56022">
        <ele>1197</ele>
        <time>2013-05-20T10:18:54Z</time>
      </trkpt>
      <trkpt lat="44.7975" lon="3.56024">
        <ele>1197</ele>
        <time>2013-05-20T10:18:55Z</time>
      </trkpt>
      <trkpt lat="44.79722" lon="3.56075">
        <ele>1203</ele>
        <time>2013-05-20T10:20:00Z</time>
      </trkpt>
      <trkpt lat="44.7969" lon="3.56137">
        <ele>1210</ele>
        <time>2013-05-20T10:30:10Z</time>
      </trkpt>
      <trkpt lat="44.79671" lon="3.56179">
        <ele>1213</ele>
        <time>2013-05-20T10:30:11Z</time>
      </trkpt>
      <trkpt lat="44.79635" lon="3.56227">
        <ele>1218</ele>
        <time>2013-05-20T10:31:13Z</time>
      </trkpt>
      <trkpt lat="44.79606" lon="3.56257">
        <ele>1222</ele>
        <time>2013-05-20T10:31:14Z</time>
      </trkpt>
      <trkpt lat="44.79563" lon="3.56296">
        <ele>1228</ele>
        <time>2013-05-20T10:31:59Z</time>
      </trkpt>
      <trkpt lat="44.79532" lon="3.5634">
        <ele>1232</ele>
        <time>2013-05-20T10:32:21Z</time>
      </trkpt>
      <trkpt lat="44.79531" lon="3.56342">
        <ele>1232</ele>
        <time>2013-05-20T10:32:22Z</time>
      </trkpt>
      <trkpt lat="44.79463" lon="3.56418">
        <ele>1244</ele>
        <time>2013-05-20T10:33:24Z</time>
      </trkpt>
      <trkpt lat="44.79462" lon="3.56419">
        <ele>1244</ele>
        <time>2013-05-20T10:33:25Z</time>
      </trkpt>
      <trkpt lat="44.79411" lon="3.56492">
        <ele>1246</ele>
        <time>2013-05-20T10:34:27Z</time>
      </trkpt>
      <trkpt lat="44.79404" lon="3.56513">
        <ele>1246</ele>
        <time>2013-05-20T10:34:28Z</time>
      </trkpt>
      <trkpt lat="44.7938" lon="3.5659">
        <ele>1252</ele>
        <time>2013-05-20T10:35:26Z</time>
      </trkpt>
      <trkpt lat="44.79357" lon="3.56611">
        <ele>1255</ele>
        <time>2013-05-20T10:35:48Z</time>
      </trkpt>
      <trkpt lat="44.79338" lon="3.56632">
        <ele>1257</ele>
        <time>2013-05-20T10:35:49Z</time>
      </trkpt>
      <trkpt lat="44.7929" lon="3.56694">
        <ele>1256</ele>
        <time>2013-05-20T10:36:34Z</time>
      </trkpt>
      <trkpt lat="44.79253" lon="3.56729">
        <ele>1255</ele>
        <time>2013-05-20T10:37:05Z</time>
      </trkpt>
      <trkpt lat="44.79252" lon="3.5673">
        <ele>1254</ele>
        <time>2013-05-20T10:37:06Z</time>
      </trkpt>
      <trkpt lat="44.79204" lon="3.56823">
        <ele>1263</ele>
        <time>2013-05-20T10:38:04Z</time>
      </trkpt>
      <trkpt lat="44.79206" lon="3.56843">
        <ele>1266</ele>
        <time>2013-05-20T10:38:38Z</time>
      </trkpt>
      <trkpt lat="44.7921" lon="3.56895">
        <ele>1270</ele>
        <time>2013-05-20T10:38:39Z</time>
      </trkpt>
      <trkpt lat="44.79177" lon="3.56931">
        <ele>1276</ele>
        <time>2013-05-20T10:39:33Z</time>
      </trkpt>
      <trkpt lat="44.79143" lon="3.56966">
        <ele>1280</ele>
        <time>2013-05-20T10:40:57Z</time>
      </trkpt>
      <trkpt lat="44.79142" lon="3.56971">
        <ele>1280</ele>
        <time>2013-05-20T10:40:58Z</time>
      </trkpt>
      <trkpt lat="44.79128" lon="3.57087">
        <ele>1283</ele>
        <time>2013-05-20T10:41:45Z</time>
      </trkpt>
      <trkpt lat="44.79131" lon="3.5715">
        <ele>1291</ele>
        <time>2013-05-20T10:42:15Z</time>
      </trkpt>
      <trkpt lat="44.79131" lon="3.57152">
        <ele>1291</ele>
        <time>2013-05-20T10:42:16Z</time>
      </trkpt>
      <trkpt lat="44.79139" lon="3.57273">
        <ele>1298</ele>
        <time>2013-05-20T10:43:22Z</time>
      </trkpt>
      <trkpt lat="44.79139" lon="3.57276">
        <ele>1298</ele>
        <time>2013-05-20T10:43:23Z</time>
      </trkpt>
      <trkpt lat="44.79185" lon="3.57285">
        <ele>1304</ele>
        <time>2013-05-20T10:44:57Z</time>
      </trkpt>
      <trkpt lat="44.79263" lon="3.57316">
        <ele>1313</ele>
        <time>2013-05-20T10:47:00Z</time>
      </trkpt>
      <trkpt lat="44.79266" lon="3.5732">
        <ele>1313</ele>
        <time>2013-05-20T10:47:01Z</time>
      </trkpt>
      <trkpt lat="44.79334" lon="3.57382">
        <ele>1310</ele>
        <time>2013-05-20T10:48:04Z</time>
      </trkpt>
      <trkpt lat="44.79337" lon="3.57385">
        <ele>1310</ele>
        <time>2013-05-20T10:48:05Z</time>
      </trkpt>
      <trkpt lat="44.79416" lon="3.57429">
        <ele>1306</ele>
        <time>2013-05-20T10:48:41Z</time>
      </trkpt>
      <trkpt lat="44.79458" lon="3.57451">
        <ele>1304</ele>
        <time>2013-05-20T10:49:10Z</time>
      </trkpt>
      <trkpt lat="44.79459" lon="3.57452">
        <ele>1304</ele>
        <time>2013-05-20T10:49:11Z</time>
      </trkpt>
      <trkpt lat="44.79545" lon="3.57458">
        <ele>1297</ele>
        <time>2013-05-20T10:50:15Z</time>
      </trkpt>
      <trkpt lat="44.79547" lon="3.57458">
        <ele>1297</ele>
        <time>2013-05-20T10:50:16Z</time>
      </trkpt>
      <trkpt lat="44.79632" lon="3.57442">
        <ele>1292</ele>
        <time>2013-05-20T10:51:09Z</time>
      </trkpt>
      <trkpt lat="44.79676" lon="3.57443">
        <ele>1290</ele>
        <time>2013-05-20T10:51:43Z</time>
      </trkpt>
      <trkpt lat="44.79678" lon="3.57443">
        <ele>1290</ele>
        <time>2013-05-20T10:51:44Z</time>
      </trkpt>
      <trkpt lat="44.79763" lon="3.57462">
        <ele>1295</ele>
        <time>2013-05-20T10:52:36Z</time>
      </trkpt>
      <trkpt lat="44.79807" lon="3.57467">
        <ele>1296</ele>
        <time>2013-05-20T10:53:11Z</time>
      </trkpt>
      <trkpt lat="44.79809" lon="3.57467">
        <ele>1296</ele>
        <time>2013-05-20T10:53:12Z</time>
      </trkpt>
      <trkpt lat="44.79892" lon="3.57495">
        <ele>1296</ele>
        <time>2013-05-20T10:54:00Z</time>
      </trkpt>
      <trkpt lat="44.79935" lon="3.57509">
        <ele>1294</ele>
        <time>2013-05-20T10:54:28Z</time>
      </trkpt>
      <trkpt lat="44.79936" lon="3.5751">
        <ele>1294</ele>
        <time>2013-05-20T10:54:29Z</time>
      </trkpt>
      <trkpt lat="44.80012" lon="3.57567">
        <ele>1292</ele>
        <time>2013-05-20T10:55:24Z</time>
      </trkpt>
      <trkpt lat="44.80049" lon="3.57603">
        <ele>1290</ele>
        <time>2013-05-20T10:55:53Z</time>
      </trkpt>
      <trkpt lat="44.80051" lon="3.57604">
        <ele>1290</ele>
        <time>2013-05-20T10:55:54Z</time>
      </trkpt>
      <trkpt lat="44.80119" lon="3.57677">
        <ele>1286</ele>
        <time>2013-05-20T10:57:21Z</time>
      </trkpt>
      <trkpt lat="44.80119" lon="3.57683">
        <ele>1286</ele>
        <time>2013-05-20T10:57:22Z</time>
      </trkpt>
      <trkpt lat="44.80126" lon="3.57798">
        <ele>1282</ele>
        <time>2013-05-20T10:57:57Z</time>
      </trkpt>
      <trkpt lat="44.80114" lon="3.57858">
        <ele>1281</ele>
        <time>2013-05-20T10:58:25Z</time>
      </trkpt>
      <trkpt lat="44.80113" lon="3.5786">
        <ele>1281</ele>
        <time>2013-05-20T10:58:26Z</time>
      </trkpt>
      <trkpt lat="44.80093" lon="3.57975">
        <ele>1279</ele>
        <time>2013-05-20T10:59:22Z</time>
      </trkpt>
      <trkpt lat="44.80073" lon="3.58029">
        <ele>1278</ele>
        <time>2013-05-20T10:59:48Z</time>
      </trkpt>
      <trkpt lat="44.80072" lon="3.58032">
        <ele>1278</ele>
        <time>2013-05-20T10:59:49Z</time>
      </trkpt>
      <trkpt lat="44.80025" lon="3.58133">
        <ele>1274</ele>
        <time>2013-05-20T11:00:43Z</time>
      </trkpt>
      <trkpt lat="44.80003" lon="3.58187">
        <ele>1271</ele>
        <time>2013-05-20T11:01:13Z</time>
      </trkpt>
      <trkpt lat="44.80003" lon="3.58189">
        <ele>1271</ele>
        <time>2013-05-20T11:01:14Z</time>
      </trkpt>
      <trkpt lat="44.7993" lon="3.58254">
        <ele>1273</ele>
        <time>2013-05-20T11:02:36Z</time>
      </trkpt>
      <trkpt lat="44.79927" lon="3.58257">
        <ele>1272</ele>
        <time>2013-05-20T11:02:37Z</time>
      </trkpt>
      <trkpt lat="44.79854" lon="3.58313">
        <ele>1268</ele>
        <time>2013-05-20T11:03:24Z</time>
      </trkpt>
      <trkpt lat="44.79818" lon="3.58346">
        <ele>1268</ele>
        <time>2013-05-20T11:03:58Z</time>
      </trkpt>
      <trkpt lat="44.79816" lon="3.58348">
        <ele>1268</ele>
        <time>2013-05-20T11:03:59Z</time>
      </trkpt>
      <trkpt lat="44.79744" lon="3.58414">
        <ele>1272</ele>
        <time>2013-05-20T11:05:00Z</time>
      </trkpt>
      <trkpt lat="44.79741" lon="3.58416">
        <ele>1272</ele>
        <time>2013-05-20T11:05:01Z</time>
      </trkpt>
      <trkpt lat="44.79672" lon="3.58485">
        <ele>1267</ele>
        <time>2013-05-20T11:06:04Z</time>
      </trkpt>
      <trkpt lat="44.7967" lon="3.58488">
        <ele>1267</ele>
        <time>2013-05-20T11:06:05Z</time>
      </trkpt>
      <trkpt lat="44.79607" lon="3.58567">
        <ele>1265</ele>
        <time>2013-05-20T11:07:04Z</time>
      </trkpt>
      <trkpt lat="44.79583" lon="3.58618">
        <ele>1261</ele>
        <time>2013-05-20T11:07:20Z</time>
      </trkpt>
      <trkpt lat="44.79582" lon="3.58621">
        <ele>1261</ele>
        <time>2013-05-20T11:07:21Z</time>
      </trkpt>
      <trkpt lat="44.7954" lon="3.58725">
        <ele>1257</ele>
        <time>2013-05-20T11:08:09Z</time>
      </trkpt>
      <trkpt lat="44.79517" lon="3.58779">
        <ele>1255</ele>
        <time>2013-05-20T11:08:38Z</time>
      </trkpt>
      <trkpt lat="44.79517" lon="3.58781">
        <ele>1254</ele>
        <time>2013-05-20T11:08:39Z</time>
      </trkpt>
      <trkpt lat="44.79477" lon="3.58885">
        <ele>1253</ele>
        <time>2013-05-20T11:09:48Z</time>
      </trkpt>
      <trkpt lat="44.79476" lon="3.58888">
        <ele>1253</ele>
        <time>2013-05-20T11:09:49Z</time>
      </trkpt>
      <trkpt lat="44.79445" lon="3.58997">
        <ele>1258</ele>
        <time>2013-05-20T11:10:46Z</time>
      </trkpt>
      <trkpt lat="44.79432" lon="3.59056">
        <ele>1260</ele>
        <time>2013-05-20T11:11:17Z</time>
      </trkpt>
      <trkpt lat="44.79431" lon="3.59059">
        <ele>1260</ele>
        <time>2013-05-20T11:11:18Z</time>
      </trkpt>
      <trkpt lat="44.79435" lon="3.59179">
        <ele>1265</ele>
        <time>2013-05-20T11:12:10Z</time>
      </trkpt>
      <trkpt lat="44.79441" lon="3.59241">
        <ele>1268</ele>
        <time>2013-05-20T11:12:39Z</time>
      </trkpt>
      <trkpt lat="44.79441" lon="3.59244">
        <ele>1268</ele>
        <time>2013-05-20T11:12:40Z</time>
      </trkpt>
      <trkpt lat="44.79464" lon="3.59363">
        <ele>1272</ele>
        <time>2013-05-20T11:13:39Z</time>
      </trkpt>
      <trkpt lat="44.79477" lon="3.59422">
        <ele>1272</ele>
        <time>2013-05-20T11:14:08Z</time>
      </trkpt>
      <trkpt lat="44.79477" lon="3.59424">
        <ele>1272</ele>
        <time>2013-05-20T11:14:09Z</time>
      </trkpt>
      <trkpt lat="44.79489" lon="3.59545">
        <ele>1269</ele>
        <time>2013-05-20T11:15:07Z</time>
      </trkpt>
      <trkpt lat="44.79489" lon="3.59607">
        <ele>1264</ele>
        <time>2013-05-20T11:15:55Z</time>
      </trkpt>
      <trkpt lat="44.79489" lon="3.59609">
        <ele>1264</ele>
        <time>2013-05-20T11:15:56Z</time>
      </trkpt>
      <trkpt lat="44.7948" lon="3.5973">
        <ele>1258</ele>
        <time>2013-05-20T11:16:54Z</time>
      </trkpt>
      <trkpt lat="44.79483" lon="3.59792">
        <ele>1254</ele>
        <time>2013-05-20T11:17:22Z</time>
      </trkpt>
      <trkpt lat="44.79483" lon="3.59794">
        <ele>1254</ele>
        <time>2013-05-20T11:17:23Z</time>
      </trkpt>
      <trkpt lat="44.795" lon="3.59914">
        <ele>1249</ele>
        <time>2013-05-20T11:18:21Z</time>
      </trkpt>
      <trkpt lat="44.79495" lon="3.59975">
        <ele>1245</ele>
        <time>2013-05-20T11:18:51Z</time>
      </trkpt>
      <trkpt lat="44.79495" lon="3.59978">
        <ele>1245</ele>
        <time>2013-05-20T11:18:52Z</time>
      </trkpt>
      <trkpt lat="44.79483" lon="3.60039">
        <ele>1244</ele>
        <time>2013-05-20T12:35:10Z</time>
      </trkpt>
      <trkpt lat="44.79464" lon="3.60159">
        <ele>1241</ele>
        <time>2013-05-20T12:36:07Z</time>
      </trkpt>
      <trkpt lat="44.79456" lon="3.60221">
        <ele>1238</ele>
        <time>2013-05-20T12:36:44Z</time>
      </trkpt>
      <trkpt lat="44.79456" lon="3.60223">
        <ele>1237</ele>
        <time>2013-05-20T12:36:45Z</time>
      </trkpt>
      <trkpt lat="44.79451" lon="3.60342">
        <ele>1236</ele>
        <time>2013-05-20T12:37:39Z</time>
      </trkpt>
      <trkpt lat="44.79449" lon="3.60403">
        <ele>1236</ele>
        <time>2013-05-20T12:38:04Z</time>
      </trkpt>
      <trkpt lat="44.79448" lon="3.60406">
        <ele>1236</ele>
        <time>2013-05-20T12:38:05Z</time>
      </trkpt>
      <trkpt lat="44.79439" lon="3.60528">
        <ele>1234</ele>
        <time>2013-05-20T12:39:03Z</time>
      </trkpt>
      <trkpt lat="44.79445" lon="3.60589">
        <ele>1230</ele>
        <time>2013-05-20T12:39:42Z</time>
      </trkpt>
      <trkpt lat="44.79445" lon="3.60592">
        <ele>1230</ele>
        <time>2013-05-20T12:39:43Z</time>
      </trkpt>
      <trkpt lat="44.79471" lon="3.60706">
        <ele>1232</ele>
        <time>2013-05-20T12:40:27Z</time>
      </trkpt>
      <trkpt lat="44.79466" lon="3.60769">
        <ele>1229</ele>
        <time>2013-05-20T12:41:19Z</time>
      </trkpt>
      <trkpt lat="44.79466" lon="3.60773">
        <ele>1228</ele>
        <time>2013-05-20T12:41:20Z</time>
      </trkpt>
      <trkpt lat="44.79461" lon="3.60891">
        <ele>1222</ele>
        <time>2013-05-20T12:42:05Z</time>
      </trkpt>
      <trkpt lat="44.79456" lon="3.60954">
        <ele>1222</ele>
        <time>2013-05-20T12:42:33Z</time>
      </trkpt>
      <trkpt lat="44.79456" lon="3.60956">
        <ele>1222</ele>
        <time>2013-05-20T12:42:34Z</time>
      </trkpt>
      <trkpt lat="44.79446" lon="3.61078">
        <ele>1225</ele>
        <time>2013-05-20T12:43:41Z</time>
      </trkpt>
      <trkpt lat="44.79446" lon="3.6108">
        <ele>1225</ele>
        <time>2013-05-20T12:43:42Z</time>
      </trkpt>
      <trkpt lat="44.79437" lon="3.61166">
        <ele>1223</ele>
        <time>2013-05-20T12:45:01Z</time>
      </trkpt>
      <trkpt lat="44.79424" lon="3.61213">
        <ele>1222</ele>
        <time>2013-05-20T12:45:02Z</time>
      </trkpt>
      <trkpt lat="44.79402" lon="3.61278">
        <ele>1221</ele>
        <time>2013-05-20T12:46:05Z</time>
      </trkpt>
      <trkpt lat="44.79401" lon="3.61282">
        <ele>1221</ele>
        <time>2013-05-20T12:46:06Z</time>
      </trkpt>
      <trkpt lat="44.79409" lon="3.614">
        <ele>1220</ele>
        <time>2013-05-20T12:47:40Z</time>
      </trkpt>
      <trkpt lat="44.79409" lon="3.61404">
        <ele>1220</ele>
        <time>2013-05-20T12:47:41Z</time>
      </trkpt>
      <trkpt lat="44.79382" lon="3.61514">
        <ele>1214</ele>
        <time>2013-05-20T12:48:40Z</time>
      </trkpt>
      <trkpt lat="44.79359" lon="3.61567">
        <ele>1211</ele>
        <time>2013-05-20T12:49:19Z</time>
      </trkpt>
      <trkpt lat="44.79359" lon="3.61572">
        <ele>1210</ele>
        <time>2013-05-20T12:49:20Z</time>
      </trkpt>
      <trkpt lat="44.79315" lon="3.61665">
        <ele>1206</ele>
        <time>2013-05-20T12:50:03Z</time>
      </trkpt>
      <trkpt lat="44.79283" lon="3.61692">
        <ele>1208</ele>
        <time>2013-05-20T12:50:48Z</time>
      </trkpt>
      <trkpt lat="44.79255" lon="3.617">
        <ele>1208</ele>
        <time>2013-05-20T12:50:49Z</time>
      </trkpt>
      <trkpt lat="44.79218" lon="3.6171">
        <ele>1208</ele>
        <time>2013-05-20T12:51:42Z</time>
      </trkpt>
      <trkpt lat="44.79187" lon="3.61745">
        <ele>1210</ele>
        <time>2013-05-20T12:52:11Z</time>
      </trkpt>
      <trkpt lat="44.79157" lon="3.61775">
        <ele>1210</ele>
        <time>2013-05-20T12:52:12Z</time>
      </trkpt>
      <trkpt lat="44.79138" lon="3.61798">
        <ele>1213</ele>
        <time>2013-05-20T12:52:52Z</time>
      </trkpt>
      <trkpt lat="44.79108" lon="3.61836">
        <ele>1214</ele>
        <time>2013-05-20T12:53:24Z</time>
      </trkpt>
      <trkpt lat="44.79079" lon="3.61866">
        <ele>1212</ele>
        <time>2013-05-20T12:53:25Z</time>
      </trkpt>
      <trkpt lat="44.79036" lon="3.6191">
        <ele>1214</ele>
        <time>2013-05-20T12:54:02Z</time>
      </trkpt>
      <trkpt lat="44.79" lon="3.61947">
        <ele>1212</ele>
        <time>2013-05-20T12:54:31Z</time>
      </trkpt>
      <trkpt lat="44.78999" lon="3.61948">
        <ele>1212</ele>
        <time>2013-05-20T12:54:32Z</time>
      </trkpt>
      <trkpt lat="44.78945" lon="3.62015">
        <ele>1206</ele>
        <time>2013-05-20T12:55:49Z</time>
      </trkpt>
      <trkpt lat="44.78911" lon="3.62035">
        <ele>1203</ele>
        <time>2013-05-20T12:55:50Z</time>
      </trkpt>
      <trkpt lat="44.78872" lon="3.62071">
        <ele>1198</ele>
        <time>2013-05-20T12:56:55Z</time>
      </trkpt>
      <trkpt lat="44.78851" lon="3.62111">
        <ele>1191</ele>
        <time>2013-05-20T12:56:56Z</time>
      </trkpt>
      <trkpt lat="44.78805" lon="3.62131">
        <ele>1184</ele>
        <time>2013-05-20T12:57:31Z</time>
      </trkpt>
      <trkpt lat="44.78776" lon="3.62139">
        <ele>1181</ele>
        <time>2013-05-20T12:58:24Z</time>
      </trkpt>
      <trkpt lat="44.78749" lon="3.62161">
        <ele>1180</ele>
        <time>2013-05-20T12:58:25Z</time>
      </trkpt>
      <trkpt lat="44.78743" lon="3.62235">
        <ele>1173</ele>
        <time>2013-05-20T12:59:34Z</time>
      </trkpt>
      <trkpt lat="44.78749" lon="3.62286">
        <ele>1168</ele>
        <time>2013-05-20T12:59:35Z</time>
      </trkpt>
      <trkpt lat="44.78729" lon="3.62353">
        <ele>1165</ele>
        <time>2013-05-20T13:00:20Z</time>
      </trkpt>
      <trkpt lat="44.78723" lon="3.62414">
        <ele>1161</ele>
        <time>2013-05-20T13:00:45Z</time>
      </trkpt>
      <trkpt lat="44.78723" lon="3.62416">
        <ele>1161</ele>
        <time>2013-05-20T13:00:46Z</time>
      </trkpt>
      <trkpt lat="44.78697" lon="3.62529">
        <ele>1162</ele>
        <time>2013-05-20T13:01:44Z</time>
      </trkpt>
      <trkpt lat="44.78677" lon="3.62584">
        <ele>1162</ele>
        <time>2013-05-20T13:02:14Z</time>
      </trkpt>
      <trkpt lat="44.78676" lon="3.62586">
        <ele>1162</ele>
        <time>2013-05-20T13:02:15Z</time>
      </trkpt>
      <trkpt lat="44.78608" lon="3.62652">
        <ele>1161</ele>
        <time>2013-05-20T13:03:15Z</time>
      </trkpt>
      <trkpt lat="44.78601" lon="3.62657">
        <ele>1161</ele>
        <time>2013-05-20T13:03:17Z</time>
      </trkpt>
      <trkpt lat="44.78554" lon="3.62749">
        <ele>1155</ele>
        <time>2013-05-20T13:04:14Z</time>
      </trkpt>
      <trkpt lat="44.78541" lon="3.6281">
        <ele>1151</ele>
        <time>2013-05-20T13:04:46Z</time>
      </trkpt>
      <trkpt lat="44.78541" lon="3.62812">
        <ele>1151</ele>
        <time>2013-05-20T13:04:47Z</time>
      </trkpt>
      <trkpt lat="44.78525" lon="3.62916">
        <ele>1151</ele>
        <time>2013-05-20T13:06:16Z</time>
      </trkpt>
      <trkpt lat="44.78524" lon="3.62988">
        <ele>1150</ele>
        <time>2013-05-20T13:07:22Z</time>
      </trkpt>
      <trkpt lat="44.78525" lon="3.62991">
        <ele>1150</ele>
        <time>2013-05-20T13:07:23Z</time>
      </trkpt>
      <trkpt lat="44.78535" lon="3.63111">
        <ele>1155</ele>
        <time>2013-05-20T13:08:38Z</time>
      </trkpt>
      <trkpt lat="44.78536" lon="3.63116">
        <ele>1155</ele>
        <time>2013-05-20T13:08:39Z</time>
      </trkpt>
      <trkpt lat="44.78564" lon="3.63225">
        <ele>1161</ele>
        <time>2013-05-20T13:09:36Z</time>
      </trkpt>
      <trkpt lat="44.78584" lon="3.6328">
        <ele>1165</ele>
        <time>2013-05-20T13:09:50Z</time>
      </trkpt>
      <trkpt lat="44.78585" lon="3.63283">
        <ele>1165</ele>
        <time>2013-05-20T13:09:51Z</time>
      </trkpt>
      <trkpt lat="44.78599" lon="3.63315">
        <ele>1168</ele>
        <time>2013-05-20T13:14:41Z</time>
      </trkpt>
      <trkpt lat="44.78603" lon="3.63315">
        <ele>1168</ele>
        <time>2013-05-20T13:14:42Z</time>
      </trkpt>
      <trkpt lat="44.78626" lon="3.63395">
        <ele>1156</ele>
        <time>2013-05-20T13:16:31Z</time>
      </trkpt>
      <trkpt lat="44.78622" lon="3.63398">
        <ele>1156</ele>
        <time>2013-05-20T13:16:32Z</time>
      </trkpt>
      <trkpt lat="44.78558" lon="3.63464">
        <ele>1153</ele>
        <time>2013-05-20T13:17:33Z</time>
      </trkpt>
      <trkpt lat="44.78555" lon="3.63468">
        <ele>1152</ele>
        <time>2013-05-20T13:17:34Z</time>
      </trkpt>
      <trkpt lat="44.78553" lon="3.6353">
        <ele>1141</ele>
        <time>2013-05-20T13:18:37Z</time>
      </trkpt>
      <trkpt lat="44.78587" lon="3.63571">
        <ele>1139</ele>
        <time>2013-05-20T13:19:52Z</time>
      </trkpt>
      <trkpt lat="44.78669" lon="3.63609">
        <ele>1140</ele>
        <time>2013-05-20T13:20:44Z</time>
      </trkpt>
      <trkpt lat="44.78711" lon="3.6363">
        <ele>1142</ele>
        <time>2013-05-20T13:21:08Z</time>
      </trkpt>
      <trkpt lat="44.78712" lon="3.63631">
        <ele>1142</ele>
        <time>2013-05-20T13:21:09Z</time>
      </trkpt>
      <trkpt lat="44.78712" lon="3.63695">
        <ele>1154</ele>
        <time>2013-05-20T13:22:37Z</time>
      </trkpt>
      <trkpt lat="44.78709" lon="3.63696">
        <ele>1154</ele>
        <time>2013-05-20T13:22:38Z</time>
      </trkpt>
      <trkpt lat="44.7863" lon="3.63732">
        <ele>1164</ele>
        <time>2013-05-20T13:23:56Z</time>
      </trkpt>
      <trkpt lat="44.78626" lon="3.63735">
        <ele>1165</ele>
        <time>2013-05-20T13:23:57Z</time>
      </trkpt>
      <trkpt lat="44.78566" lon="3.63803">
        <ele>1173</ele>
        <time>2013-05-20T13:25:02Z</time>
      </trkpt>
      <trkpt lat="44.78564" lon="3.63808">
        <ele>1173</ele>
        <time>2013-05-20T13:25:03Z</time>
      </trkpt>
      <trkpt lat="44.78514" lon="3.63901">
        <ele>1184</ele>
        <time>2013-05-20T13:26:06Z</time>
      </trkpt>
      <trkpt lat="44.78511" lon="3.63903">
        <ele>1184</ele>
        <time>2013-05-20T13:26:07Z</time>
      </trkpt>
      <trkpt lat="44.78446" lon="3.63971">
        <ele>1192</ele>
        <time>2013-05-20T13:27:15Z</time>
      </trkpt>
      <trkpt lat="44.78442" lon="3.63973">
        <ele>1192</ele>
        <time>2013-05-20T13:27:16Z</time>
      </trkpt>
      <trkpt lat="44.78373" lon="3.6404">
        <ele>1206</ele>
        <time>2013-05-20T13:28:02Z</time>
      </trkpt>
      <trkpt lat="44.78344" lon="3.64084">
        <ele>1208</ele>
        <time>2013-05-20T13:28:54Z</time>
      </trkpt>
      <trkpt lat="44.78341" lon="3.64088">
        <ele>1208</ele>
        <time>2013-05-20T13:28:55Z</time>
      </trkpt>
      <trkpt lat="44.78277" lon="3.64163">
        <ele>1215</ele>
        <time>2013-05-20T13:29:33Z</time>
      </trkpt>
      <trkpt lat="44.78235" lon="3.64184">
        <ele>1216</ele>
        <time>2013-05-20T13:30:08Z</time>
      </trkpt>
      <trkpt lat="44.78233" lon="3.64187">
        <ele>1216</ele>
        <time>2013-05-20T13:30:09Z</time>
      </trkpt>
      <trkpt lat="44.78167" lon="3.64259">
        <ele>1223</ele>
        <time>2013-05-20T13:31:27Z</time>
      </trkpt>
      <trkpt lat="44.78164" lon="3.64262">
        <ele>1224</ele>
        <time>2013-05-20T13:31:28Z</time>
      </trkpt>
      <trkpt lat="44.78103" lon="3.64344">
        <ele>1225</ele>
        <time>2013-05-20T13:32:20Z</time>
      </trkpt>
      <trkpt lat="44.78084" lon="3.64399">
        <ele>1216</ele>
        <time>2013-05-20T13:33:26Z</time>
      </trkpt>
      <trkpt lat="44.78083" lon="3.64403">
        <ele>1215</ele>
        <time>2013-05-20T13:33:27Z</time>
      </trkpt>
      <trkpt lat="44.78075" lon="3.64522">
        <ele>1206</ele>
        <time>2013-05-20T13:34:26Z</time>
      </trkpt>
      <trkpt lat="44.78066" lon="3.64582">
        <ele>1200</ele>
        <time>2013-05-20T13:35:28Z</time>
      </trkpt>
      <trkpt lat="44.78066" lon="3.64587">
        <ele>1199</ele>
        <time>2013-05-20T13:35:29Z</time>
      </trkpt>
      <trkpt lat="44.78036" lon="3.64667">
        <ele>1193</ele>
        <time>2013-05-20T13:37:38Z</time>
      </trkpt>
      <trkpt lat="44.78033" lon="3.64668">
        <ele>1193</ele>
        <time>2013-05-20T13:37:39Z</time>
      </trkpt>
      <trkpt lat="44.77948" lon="3.64665">
        <ele>1192</ele>
        <time>2013-05-20T13:38:38Z</time>
      </trkpt>
      <trkpt lat="44.77904" lon="3.64658">
        <ele>1192</ele>
        <time>2013-05-20T13:39:05Z</time>
      </trkpt>
      <trkpt lat="44.77903" lon="3.64658">
        <ele>1192</ele>
        <time>2013-05-20T13:39:06Z</time>
      </trkpt>
      <trkpt lat="44.77822" lon="3.64614">
        <ele>1189</ele>
        <time>2013-05-20T13:40:03Z</time>
      </trkpt>
      <trkpt lat="44.77784" lon="3.64585">
        <ele>1190</ele>
        <time>2013-05-20T13:40:32Z</time>
      </trkpt>
      <trkpt lat="44.77783" lon="3.64583">
        <ele>1190</ele>
        <time>2013-05-20T13:40:33Z</time>
      </trkpt>
      <trkpt lat="44.77711" lon="3.64561">
        <ele>1186</ele>
        <time>2013-05-20T13:41:35Z</time>
      </trkpt>
      <trkpt lat="44.7771" lon="3.64563">
        <ele>1186</ele>
        <time>2013-05-20T13:41:36Z</time>
      </trkpt>
      <trkpt lat="44.77644" lon="3.64641">
        <ele>1174</ele>
        <time>2013-05-20T13:42:30Z</time>
      </trkpt>
      <trkpt lat="44.77619" lon="3.64691">
        <ele>1171</ele>
        <time>2013-05-20T13:42:54Z</time>
      </trkpt>
      <trkpt lat="44.77617" lon="3.64694">
        <ele>1171</ele>
        <time>2013-05-20T13:42:55Z</time>
      </trkpt>
      <trkpt lat="44.77544" lon="3.64753">
        <ele>1175</ele>
        <time>2013-05-20T13:44:24Z</time>
      </trkpt>
      <trkpt lat="44.77541" lon="3.64752">
        <ele>1176</ele>
        <time>2013-05-20T13:44:25Z</time>
      </trkpt>
      <trkpt lat="44.77475" lon="3.64827">
        <ele>1186</ele>
        <time>2013-05-20T13:45:20Z</time>
      </trkpt>
      <trkpt lat="44.77443" lon="3.64868">
        <ele>1190</ele>
        <time>2013-05-20T13:45:47Z</time>
      </trkpt>
      <trkpt lat="44.77441" lon="3.6487">
        <ele>1189</ele>
        <time>2013-05-20T13:45:48Z</time>
      </trkpt>
      <trkpt lat="44.77375" lon="3.64944">
        <ele>1198</ele>
        <time>2013-05-20T13:47:03Z</time>
      </trkpt>
      <trkpt lat="44.77371" lon="3.64946">
        <ele>1198</ele>
        <time>2013-05-20T13:47:04Z</time>
      </trkpt>
      <trkpt lat="44.77323" lon="3.65028">
        <ele>1200</ele>
        <time>2013-05-20T13:50:04Z</time>
      </trkpt>
      <trkpt lat="44.77323" lon="3.65033">
        <ele>1200</ele>
        <time>2013-05-20T13:50:05Z</time>
      </trkpt>
      <trkpt lat="44.77308" lon="3.65151">
        <ele>1203</ele>
        <time>2013-05-20T13:51:19Z</time>
      </trkpt>
      <trkpt lat="44.77307" lon="3.65154">
        <ele>1203</ele>
        <time>2013-05-20T13:51:20Z</time>
      </trkpt>
      <trkpt lat="44.77242" lon="3.65232">
        <ele>1211</ele>
        <time>2013-05-20T13:53:40Z</time>
      </trkpt>
      <trkpt lat="44.77241" lon="3.65237">
        <ele>1212</ele>
        <time>2013-05-20T13:53:41Z</time>
      </trkpt>
      <trkpt lat="44.77205" lon="3.65248">
        <ele>1207</ele>
        <time>2013-05-20T14:17:27Z</time>
      </trkpt>
      <trkpt lat="44.77202" lon="3.65248">
        <ele>1208</ele>
        <time>2013-05-20T14:17:28Z</time>
      </trkpt>
      <trkpt lat="44.7712" lon="3.65224">
        <ele>1220</ele>
        <time>2013-05-20T14:18:17Z</time>
      </trkpt>
      <trkpt lat="44.77095" lon="3.65195">
        <ele>1223</ele>
        <time>2013-05-20T14:18:53Z</time>
      </trkpt>
      <trkpt lat="44.77083" lon="3.65172">
        <ele>1226</ele>
        <time>2013-05-20T14:18:54Z</time>
      </trkpt>
      <trkpt lat="44.77029" lon="3.65123">
        <ele>1234</ele>
        <time>2013-05-20T14:19:40Z</time>
      </trkpt>
      <trkpt lat="44.77004" lon="3.6512">
        <ele>1237</ele>
        <time>2013-05-20T14:20:24Z</time>
      </trkpt>
      <trkpt lat="44.76968" lon="3.65108">
        <ele>1239</ele>
        <time>2013-05-20T14:20:25Z</time>
      </trkpt>
      <trkpt lat="44.76918" lon="3.65087">
        <ele>1242</ele>
        <time>2013-05-20T14:21:01Z</time>
      </trkpt>
      <trkpt lat="44.76874" lon="3.65077">
        <ele>1246</ele>
        <time>2013-05-20T14:21:31Z</time>
      </trkpt>
      <trkpt lat="44.76873" lon="3.65077">
        <ele>1246</ele>
        <time>2013-05-20T14:21:32Z</time>
      </trkpt>
      <trkpt lat="44.76786" lon="3.65062">
        <ele>1246</ele>
        <time>2013-05-20T14:22:27Z</time>
      </trkpt>
      <trkpt lat="44.76741" lon="3.65066">
        <ele>1249</ele>
        <time>2013-05-20T14:22:57Z</time>
      </trkpt>
      <trkpt lat="44.7674" lon="3.65067">
        <ele>1249</ele>
        <time>2013-05-20T14:22:58Z</time>
      </trkpt>
      <trkpt lat="44.76653" lon="3.65068">
        <ele>1248</ele>
        <time>2013-05-20T14:23:57Z</time>
      </trkpt>
      <trkpt lat="44.76609" lon="3.65068">
        <ele>1250</ele>
        <time>2013-05-20T14:24:27Z</time>
      </trkpt>
      <trkpt lat="44.76608" lon="3.65068">
        <ele>1250</ele>
        <time>2013-05-20T14:24:28Z</time>
      </trkpt>
      <trkpt lat="44.76521" lon="3.65073">
        <ele>1252</ele>
        <time>2013-05-20T14:25:28Z</time>
      </trkpt>
      <trkpt lat="44.7652" lon="3.65073">
        <ele>1252</ele>
        <time>2013-05-20T14:25:29Z</time>
      </trkpt>
      <trkpt lat="44.76433" lon="3.65079">
        <ele>1251</ele>
        <time>2013-05-20T14:26:28Z</time>
      </trkpt>
      <trkpt lat="44.7639" lon="3.65081">
        <ele>1250</ele>
        <time>2013-05-20T14:26:56Z</time>
      </trkpt>
      <trkpt lat="44.76388" lon="3.65081">
        <ele>1250</ele>
        <time>2013-05-20T14:26:57Z</time>
      </trkpt>
      <trkpt lat="44.76301" lon="3.65091">
        <ele>1247</ele>
        <time>2013-05-20T14:27:56Z</time>
      </trkpt>
      <trkpt lat="44.76257" lon="3.651">
        <ele>1246</ele>
        <time>2013-05-20T14:28:26Z</time>
      </trkpt>
      <trkpt lat="44.76256" lon="3.65101">
        <ele>1246</ele>
        <time>2013-05-20T14:28:27Z</time>
      </trkpt>
      <trkpt lat="44.76182" lon="3.65153">
        <ele>1238</ele>
        <time>2013-05-20T14:29:58Z</time>
      </trkpt>
      <trkpt lat="44.7618" lon="3.65157">
        <ele>1238</ele>
        <time>2013-05-20T14:29:59Z</time>
      </trkpt>
      <trkpt lat="44.76159" lon="3.6527">
        <ele>1232</ele>
        <time>2013-05-20T14:30:50Z</time>
      </trkpt>
      <trkpt lat="44.76132" lon="3.65317">
        <ele>1235</ele>
        <time>2013-05-20T14:31:24Z</time>
      </trkpt>
      <trkpt lat="44.76129" lon="3.65321">
        <ele>1236</ele>
        <time>2013-05-20T14:31:25Z</time>
      </trkpt>
      <trkpt lat="44.76103" lon="3.65432">
        <ele>1234</ele>
        <time>2013-05-20T14:32:26Z</time>
      </trkpt>
      <trkpt lat="44.76102" lon="3.65437">
        <ele>1234</ele>
        <time>2013-05-20T14:32:27Z</time>
      </trkpt>
      <trkpt lat="44.76084" lon="3.65548">
        <ele>1227</ele>
        <time>2013-05-20T14:33:27Z</time>
      </trkpt>
      <trkpt lat="44.76083" lon="3.65553">
        <ele>1227</ele>
        <time>2013-05-20T14:33:28Z</time>
      </trkpt>
      <trkpt lat="44.76043" lon="3.65656">
        <ele>1232</ele>
        <time>2013-05-20T14:34:30Z</time>
      </trkpt>
      <trkpt lat="44.76042" lon="3.65661">
        <ele>1232</ele>
        <time>2013-05-20T14:34:31Z</time>
      </trkpt>
      <trkpt lat="44.76008" lon="3.65768">
        <ele>1230</ele>
        <time>2013-05-20T14:35:28Z</time>
      </trkpt>
      <trkpt lat="44.75994" lon="3.65823">
        <ele>1232</ele>
        <time>2013-05-20T14:36:05Z</time>
      </trkpt>
      <trkpt lat="44.75993" lon="3.65828">
        <ele>1232</ele>
        <time>2013-05-20T14:36:06Z</time>
      </trkpt>
      <trkpt lat="44.7593" lon="3.65907">
        <ele>1232</ele>
        <time>2013-05-20T14:37:10Z</time>
      </trkpt>
      <trkpt lat="44.75927" lon="3.6591">
        <ele>1232</ele>
        <time>2013-05-20T14:37:11Z</time>
      </trkpt>
      <trkpt lat="44.75857" lon="3.6595">
        <ele>1228</ele>
        <time>2013-05-20T14:37:49Z</time>
      </trkpt>
      <trkpt lat="44.75814" lon="3.65967">
        <ele>1226</ele>
        <time>2013-05-20T14:38:25Z</time>
      </trkpt>
      <trkpt lat="44.75806" lon="3.65977">
        <ele>1226</ele>
        <time>2013-05-20T14:38:26Z</time>
      </trkpt>
      <trkpt lat="44.75739" lon="3.66032">
        <ele>1222</ele>
        <time>2013-05-20T14:39:16Z</time>
      </trkpt>
      <trkpt lat="44.75728" lon="3.66036">
        <ele>1222</ele>
        <time>2013-05-20T14:40:27Z</time>
      </trkpt>
      <trkpt lat="44.75693" lon="3.66043">
        <ele>1221</ele>
        <time>2013-05-20T14:40:28Z</time>
      </trkpt>
      <trkpt lat="44.75667" lon="3.66083">
        <ele>1213</ele>
        <time>2013-05-20T14:41:19Z</time>
      </trkpt>
      <trkpt lat="44.75649" lon="3.66116">
        <ele>1210</ele>
        <time>2013-05-20T14:41:46Z</time>
      </trkpt>
      <trkpt lat="44.75641" lon="3.66167">
        <ele>1208</ele>
        <time>2013-05-20T14:41:47Z</time>
      </trkpt>
      <trkpt lat="44.7563" lon="3.66205">
        <ele>1203</ele>
        <time>2013-05-20T14:42:34Z</time>
      </trkpt>
      <trkpt lat="44.75629" lon="3.66268">
        <ele>1208</ele>
        <time>2013-05-20T14:43:01Z</time>
      </trkpt>
      <trkpt lat="44.75628" lon="3.66273">
        <ele>1208</ele>
        <time>2013-05-20T14:43:02Z</time>
      </trkpt>
      <trkpt lat="44.75597" lon="3.66384">
        <ele>1211</ele>
        <time>2013-05-20T14:45:31Z</time>
      </trkpt>
      <trkpt lat="44.75597" lon="3.66389">
        <ele>1211</ele>
        <time>2013-05-20T14:45:32Z</time>
      </trkpt>
      <trkpt lat="44.75617" lon="3.66505">
        <ele>1213</ele>
        <time>2013-05-20T14:46:23Z</time>
      </trkpt>
      <trkpt lat="44.75627" lon="3.66566">
        <ele>1215</ele>
        <time>2013-05-20T14:46:47Z</time>
      </trkpt>
      <trkpt lat="44.75628" lon="3.66568">
        <ele>1215</ele>
        <time>2013-05-20T14:46:48Z</time>
      </trkpt>
      <trkpt lat="44.75652" lon="3.66682">
        <ele>1216</ele>
        <time>2013-05-20T14:48:13Z</time>
      </trkpt>
      <trkpt lat="44.75653" lon="3.66687">
        <ele>1216</ele>
        <time>2013-05-20T14:48:14Z</time>
      </trkpt>
      <trkpt lat="44.7567" lon="3.66799">
        <ele>1215</ele>
        <time>2013-05-20T14:48:50Z</time>
      </trkpt>
      <trkpt lat="44.7568" lon="3.66861">
        <ele>1216</ele>
        <time>2013-05-20T14:49:18Z</time>
      </trkpt>
      <trkpt lat="44.7568" lon="3.66863">
        <ele>1216</ele>
        <time>2013-05-20T14:49:19Z</time>
      </trkpt>
      <trkpt lat="44.75718" lon="3.66968">
        <ele>1211</ele>
        <time>2013-05-20T14:50:10Z</time>
      </trkpt>
      <trkpt lat="44.7572" lon="3.67028">
        <ele>1203</ele>
        <time>2013-05-20T14:50:21Z</time>
      </trkpt>
      <trkpt lat="44.7572" lon="3.67033">
        <ele>1203</ele>
        <time>2013-05-20T14:50:22Z</time>
      </trkpt>
      <trkpt lat="44.75728" lon="3.67147">
        <ele>1202</ele>
        <time>2013-05-20T14:50:38Z</time>
      </trkpt>
      <trkpt lat="44.75738" lon="3.67209">
        <ele>1198</ele>
        <time>2013-05-20T14:50:47Z</time>
      </trkpt>
      <trkpt lat="44.75747" lon="3.67268">
        <ele>1194</ele>
        <time>2013-05-20T14:50:55Z</time>
      </trkpt>
      <trkpt lat="44.75753" lon="3.67324">
        <ele>1194</ele>
        <time>2013-05-20T14:51:01Z</time>
      </trkpt>
      <trkpt lat="44.75757" lon="3.67379">
        <ele>1196</ele>
        <time>2013-05-20T14:51:07Z</time>
      </trkpt>
      <trkpt lat="44.75758" lon="3.67438">
        <ele>1198</ele>
        <time>2013-05-20T14:51:14Z</time>
      </trkpt>
      <trkpt lat="44.75763" lon="3.67499">
        <ele>1198</ele>
        <time>2013-05-20T14:51:21Z</time>
      </trkpt>
      <trkpt lat="44.75773" lon="3.67556">
        <ele>1200</ele>
        <time>2013-05-20T14:51:27Z</time>
      </trkpt>
      <trkpt lat="44.75775" lon="3.67565">
        <ele>1200</ele>
        <time>2013-05-20T14:51:28Z</time>
      </trkpt>
      <trkpt lat="44.75792" lon="3.67675">
        <ele>1190</ele>
        <time>2013-05-20T14:51:55Z</time>
      </trkpt>
      <trkpt lat="44.75806" lon="3.67731">
        <ele>1190</ele>
        <time>2013-05-20T14:52:44Z</time>
      </trkpt>
      <trkpt lat="44.75808" lon="3.67737">
        <ele>1190</ele>
        <time>2013-05-20T14:52:45Z</time>
      </trkpt>
      <trkpt lat="44.75844" lon="3.67839">
        <ele>1187</ele>
        <time>2013-05-20T14:53:48Z</time>
      </trkpt>
      <trkpt lat="44.75846" lon="3.67844">
        <ele>1187</ele>
        <time>2013-05-20T14:53:49Z</time>
      </trkpt>
      <trkpt lat="44.75873" lon="3.67955">
        <ele>1184</ele>
        <time>2013-05-20T14:54:42Z</time>
      </trkpt>
      <trkpt lat="44.75885" lon="3.68012">
        <ele>1180</ele>
        <time>2013-05-20T14:56:24Z</time>
      </trkpt>
      <trkpt lat="44.75886" lon="3.68017">
        <ele>1180</ele>
        <time>2013-05-20T14:56:25Z</time>
      </trkpt>
      <trkpt lat="44.75919" lon="3.68127">
        <ele>1172</ele>
        <time>2013-05-20T14:57:09Z</time>
      </trkpt>
      <trkpt lat="44.75899" lon="3.68181">
        <ele>1164</ele>
        <time>2013-05-20T14:57:51Z</time>
      </trkpt>
      <trkpt lat="44.75899" lon="3.68184">
        <ele>1164</ele>
        <time>2013-05-20T14:57:52Z</time>
      </trkpt>
      <trkpt lat="44.75912" lon="3.68247">
        <ele>1162</ele>
        <time>2013-05-20T14:59:05Z</time>
      </trkpt>
      <trkpt lat="44.7593" lon="3.68364">
        <ele>1166</ele>
        <time>2013-05-20T14:59:37Z</time>
      </trkpt>
      <trkpt lat="44.75946" lon="3.68421">
        <ele>1166</ele>
        <time>2013-05-20T15:00:09Z</time>
      </trkpt>
      <trkpt lat="44.75947" lon="3.68423">
        <ele>1166</ele>
        <time>2013-05-20T15:00:10Z</time>
      </trkpt>
      <trkpt lat="44.7597" lon="3.68539">
        <ele>1169</ele>
        <time>2013-05-20T15:01:24Z</time>
      </trkpt>
      <trkpt lat="44.75971" lon="3.68544">
        <ele>1170</ele>
        <time>2013-05-20T15:01:25Z</time>
      </trkpt>
      <trkpt lat="44.76009" lon="3.68649">
        <ele>1173</ele>
        <time>2013-05-20T15:02:13Z</time>
      </trkpt>
      <trkpt lat="44.76031" lon="3.68698">
        <ele>1170</ele>
        <time>2013-05-20T15:02:54Z</time>
      </trkpt>
      <trkpt lat="44.76033" lon="3.68703">
        <ele>1170</ele>
        <time>2013-05-20T15:02:55Z</time>
      </trkpt>
      <trkpt lat="44.76067" lon="3.68807">
        <ele>1170</ele>
        <time>2013-05-20T15:03:40Z</time>
      </trkpt>
      <trkpt lat="44.7608" lon="3.68867">
        <ele>1173</ele>
        <time>2013-05-20T15:04:11Z</time>
      </trkpt>
      <trkpt lat="44.7608" lon="3.6887">
        <ele>1173</ele>
        <time>2013-05-20T15:04:12Z</time>
      </trkpt>
      <trkpt lat="44.76126" lon="3.68971">
        <ele>1175</ele>
        <time>2013-05-20T15:05:06Z</time>
      </trkpt>
      <trkpt lat="44.76153" lon="3.6902">
        <ele>1175</ele>
        <time>2013-05-20T15:05:28Z</time>
      </trkpt>
      <trkpt lat="44.76154" lon="3.69022">
        <ele>1175</ele>
        <time>2013-05-20T15:05:29Z</time>
      </trkpt>
      <trkpt lat="44.76209" lon="3.69118">
        <ele>1170</ele>
        <time>2013-05-20T15:06:31Z</time>
      </trkpt>
      <trkpt lat="44.7621" lon="3.6912">
        <ele>1170</ele>
        <time>2013-05-20T15:06:32Z</time>
      </trkpt>
      <trkpt lat="44.76277" lon="3.69198">
        <ele>1169</ele>
        <time>2013-05-20T15:07:30Z</time>
      </trkpt>
      <trkpt lat="44.76315" lon="3.6923">
        <ele>1167</ele>
        <time>2013-05-20T15:07:59Z</time>
      </trkpt>
      <trkpt lat="44.76317" lon="3.69231">
        <ele>1167</ele>
        <time>2013-05-20T15:08:00Z</time>
      </trkpt>
      <trkpt lat="44.76373" lon="3.69321">
        <ele>1157</ele>
        <time>2013-05-20T15:09:22Z</time>
      </trkpt>
      <trkpt lat="44.76374" lon="3.69326">
        <ele>1156</ele>
        <time>2013-05-20T15:09:23Z</time>
      </trkpt>
      <trkpt lat="44.76399" lon="3.69401">
        <ele>1157</ele>
        <time>2013-05-20T15:10:11Z</time>
      </trkpt>
      <trkpt lat="44.76408" lon="3.69462">
        <ele>1158</ele>
        <time>2013-05-20T15:10:18Z</time>
      </trkpt>
      <trkpt lat="44.76421" lon="3.69521">
        <ele>1156</ele>
        <time>2013-05-20T15:10:49Z</time>
      </trkpt>
      <trkpt lat="44.76421" lon="3.69523">
        <ele>1155</ele>
        <time>2013-05-20T15:10:50Z</time>
      </trkpt>
      <trkpt lat="44.76449" lon="3.69636">
        <ele>1152</ele>
        <time>2013-05-20T15:14:35Z</time>
      </trkpt>
      <trkpt lat="44.76452" lon="3.69639">
        <ele>1152</ele>
        <time>2013-05-20T15:14:36Z</time>
      </trkpt>
      <trkpt lat="44.76479" lon="3.69684">
        <ele>1148</ele>
        <time>2013-05-20T15:16:26Z</time>
      </trkpt>
      <trkpt lat="44.76528" lon="3.69783">
        <ele>1134</ele>
        <time>2013-05-20T15:17:40Z</time>
      </trkpt>
      <trkpt lat="44.76531" lon="3.69786">
        <ele>1134</ele>
        <time>2013-05-20T15:17:41Z</time>
      </trkpt>
      <trkpt lat="44.76594" lon="3.69859">
        <ele>1125</ele>
        <time>2013-05-20T15:19:15Z</time>
      </trkpt>
      <trkpt lat="44.76595" lon="3.69863">
        <ele>1125</ele>
        <time>2013-05-20T15:19:16Z</time>
      </trkpt>
      <trkpt lat="44.76635" lon="3.69891">
        <ele>1126</ele>
        <time>2013-05-20T15:23:15Z</time>
      </trkpt>
    </trkseg>
  </trk>
</gpx>